sensor_id;sensor_type;location;lat;lon;timestamp;temperature;humidity
45108;DHT22;30869;51.188;6.556;2022-11-13T00:00:25;8.40;99.90
45108;DHT22;30869;51.188;6.556;2022-11-13T00:03:19;8.40;99.90
45108;DHT22;30869;51.188;6.556;2022-11-13T00:05:48;8.30;99.90
45108;DHT22;30869;51.188;6.556;2022-11-13T00:08:40;8.30;99.90
45108;DHT22;30869;51.188;6.556;2022-11-13T00:11:41;8.30;99.90
45108;DHT22;30869;51.188;6.556;2022-11-13T00:14:17;8.30;99.90
45108;DHT22;30869;51.188;6.556;2022-11-13T00:23:48;8.40;99.90
45108;DHT22;30869;51.188;6.556;2022-11-13T00:26:29;8.30;99.90
45108;DHT22;30869;51.188;6.556;2022-11-13T00:28:59;8.30;99.90
45108;DHT22;30869;51.188;6.556;2022-11-13T00:35:27;8.30;99.90
45108;DHT22;30869;51.188;6.556;2022-11-13T00:38:57;8.40;99.90
45108;DHT22;30869;51.188;6.556;2022-11-13T00:41:29;8.20;99.90
45108;DHT22;30869;51.188;6.556;2022-11-13T00:43:55;8.20;99.90
45108;DHT22;30869;51.188;6.556;2022-11-13T00:46:59;8.10;99.90
45108;DHT22;30869;51.188;6.556;2022-11-13T00:49:34;7.90;99.90
45108;DHT22;30869;51.188;6.556;2022-11-13T00:52:13;8.20;99.90
45108;DHT22;30869;51.188;6.556;2022-11-13T00:54:44;8.00;99.90
45108;DHT22;30869;51.188;6.556;2022-11-13T00:57:41;8.00;99.90
45108;DHT22;30869;51.188;6.556;2022-11-13T01:03:34;8.20;99.90
45108;DHT22;30869;51.188;6.556;2022-11-13T01:06:14;8.20;99.90
45108;DHT22;30869;51.188;6.556;2022-11-13T01:08:45;8.10;99.90
45108;DHT22;30869;51.188;6.556;2022-11-13T01:11:16;8.10;99.90
45108;DHT22;30869;51.188;6.556;2022-11-13T01:13:44;8.30;99.90
45108;DHT22;30869;51.188;6.556;2022-11-13T01:16:19;8.20;99.90
45108;DHT22;30869;51.188;6.556;2022-11-13T01:18:54;8.30;99.90
45108;DHT22;30869;51.188;6.556;2022-11-13T01:21:24;8.30;99.90
45108;DHT22;30869;51.188;6.556;2022-11-13T01:23:51;8.20;99.90
45108;DHT22;30869;51.188;6.556;2022-11-13T01:26:28;8.20;99.90
45108;DHT22;30869;51.188;6.556;2022-11-13T01:28:54;8.20;99.90
45108;DHT22;30869;51.188;6.556;2022-11-13T01:31:22;8.20;99.90
45108;DHT22;30869;51.188;6.556;2022-11-13T01:33:51;8.10;99.90
45108;DHT22;30869;51.188;6.556;2022-11-13T01:36:26;8.10;99.90
45108;DHT22;30869;51.188;6.556;2022-11-13T01:39:00;8.10;99.90
45108;DHT22;30869;51.188;6.556;2022-11-13T01:41:33;8.10;99.90
45108;DHT22;30869;51.188;6.556;2022-11-13T01:44:03;8.00;99.90
45108;DHT22;30869;51.188;6.556;2022-11-13T01:49:02;8.30;99.90
45108;DHT22;30869;51.188;6.556;2022-11-13T01:51:46;8.40;99.90
45108;DHT22;30869;51.188;6.556;2022-11-13T01:54:18;8.40;99.90
45108;DHT22;30869;51.188;6.556;2022-11-13T01:56:45;8.40;99.90
45108;DHT22;30869;51.188;6.556;2022-11-13T01:59:16;8.40;99.90
45108;DHT22;30869;51.188;6.556;2022-11-13T02:01:43;8.30;99.90
45108;DHT22;30869;51.188;6.556;2022-11-13T02:04:09;8.20;99.90
45108;DHT22;30869;51.188;6.556;2022-11-13T02:06:45;8.00;99.90
45108;DHT22;30869;51.188;6.556;2022-11-13T02:09:20;7.80;99.90
45108;DHT22;30869;51.188;6.556;2022-11-13T02:11:54;7.70;99.90
45108;DHT22;30869;51.188;6.556;2022-11-13T02:14:22;7.80;99.90
45108;DHT22;30869;51.188;6.556;2022-11-13T02:16:57;7.80;99.90
45108;DHT22;30869;51.188;6.556;2022-11-13T02:19:38;7.80;99.90
45108;DHT22;30869;51.188;6.556;2022-11-13T02:22:29;7.80;99.90
45108;DHT22;30869;51.188;6.556;2022-11-13T02:25:02;7.90;99.90
45108;DHT22;30869;51.188;6.556;2022-11-13T02:27:40;8.10;99.90
45108;DHT22;30869;51.188;6.556;2022-11-13T02:30:23;7.80;99.90
45108;DHT22;30869;51.188;6.556;2022-11-13T02:32:50;7.90;99.90
45108;DHT22;30869;51.188;6.556;2022-11-13T02:35:38;8.00;99.90
45108;DHT22;30869;51.188;6.556;2022-11-13T02:38:05;7.80;99.90
45108;DHT22;30869;51.188;6.556;2022-11-13T02:40:37;8.10;99.90
45108;DHT22;30869;51.188;6.556;2022-11-13T02:43:06;7.90;99.90
45108;DHT22;30869;51.188;6.556;2022-11-13T02:45:31;8.00;99.90
45108;DHT22;30869;51.188;6.556;2022-11-13T02:48:00;8.00;99.90
45108;DHT22;30869;51.188;6.556;2022-11-13T02:53:00;8.10;99.90
45108;DHT22;30869;51.188;6.556;2022-11-13T02:55:29;8.30;99.90
45108;DHT22;30869;51.188;6.556;2022-11-13T02:58:10;8.10;99.90
45108;DHT22;30869;51.188;6.556;2022-11-13T03:00:48;8.00;99.90
45108;DHT22;30869;51.188;6.556;2022-11-13T03:03:13;8.00;99.90
45108;DHT22;30869;51.188;6.556;2022-11-13T03:05:46;8.10;99.90
45108;DHT22;30869;51.188;6.556;2022-11-13T03:08:12;8.00;99.90
45108;DHT22;30869;51.188;6.556;2022-11-13T03:10:37;7.90;99.90
45108;DHT22;30869;51.188;6.556;2022-11-13T03:13:06;7.90;99.90
45108;DHT22;30869;51.188;6.556;2022-11-13T03:15:40;7.80;99.90
45108;DHT22;30869;51.188;6.556;2022-11-13T03:18:17;7.80;99.90
45108;DHT22;30869;51.188;6.556;2022-11-13T03:20:44;7.90;99.90
45108;DHT22;30869;51.188;6.556;2022-11-13T03:23:29;7.90;99.90
45108;DHT22;30869;51.188;6.556;2022-11-13T03:26:16;7.90;99.90
45108;DHT22;30869;51.188;6.556;2022-11-13T03:28:48;8.10;99.90
45108;DHT22;30869;51.188;6.556;2022-11-13T03:31:17;7.90;99.90
45108;DHT22;30869;51.188;6.556;2022-11-13T03:33:51;7.80;99.90
45108;DHT22;30869;51.188;6.556;2022-11-13T03:36:17;7.80;99.90
45108;DHT22;30869;51.188;6.556;2022-11-13T03:38:46;7.80;99.90
45108;DHT22;30869;51.188;6.556;2022-11-13T03:41:12;7.70;99.90
45108;DHT22;30869;51.188;6.556;2022-11-13T03:43:41;7.80;99.90
45108;DHT22;30869;51.188;6.556;2022-11-13T03:46:09;7.70;99.90
45108;DHT22;30869;51.188;6.556;2022-11-13T03:48:38;7.50;99.90
45108;DHT22;30869;51.188;6.556;2022-11-13T03:51:07;7.50;99.90
45108;DHT22;30869;51.188;6.556;2022-11-13T03:53:34;7.40;99.90
45108;DHT22;30869;51.188;6.556;2022-11-13T03:55:59;7.50;99.90
45108;DHT22;30869;51.188;6.556;2022-11-13T03:58:25;7.50;99.90
45108;DHT22;30869;51.188;6.556;2022-11-13T04:00:55;7.50;99.90
45108;DHT22;30869;51.188;6.556;2022-11-13T04:03:21;7.60;99.90
45108;DHT22;30869;51.188;6.556;2022-11-13T04:05:50;7.60;99.90
45108;DHT22;30869;51.188;6.556;2022-11-13T04:08:17;7.50;99.90
45108;DHT22;30869;51.188;6.556;2022-11-13T04:10:48;7.50;99.90
45108;DHT22;30869;51.188;6.556;2022-11-13T04:13:14;7.50;99.90
45108;DHT22;30869;51.188;6.556;2022-11-13T04:15:40;7.50;99.90
45108;DHT22;30869;51.188;6.556;2022-11-13T04:18:06;7.50;99.90
45108;DHT22;30869;51.188;6.556;2022-11-13T04:20:34;7.50;99.90
45108;DHT22;30869;51.188;6.556;2022-11-13T04:23:00;7.60;99.90
45108;DHT22;30869;51.188;6.556;2022-11-13T04:25:26;7.60;99.90
45108;DHT22;30869;51.188;6.556;2022-11-13T04:27:52;7.60;99.90
45108;DHT22;30869;51.188;6.556;2022-11-13T04:30:19;7.60;99.90
45108;DHT22;30869;51.188;6.556;2022-11-13T04:32:47;7.70;99.90
45108;DHT22;30869;51.188;6.556;2022-11-13T04:35:17;7.60;99.90
45108;DHT22;30869;51.188;6.556;2022-11-13T04:37:46;7.50;99.90
45108;DHT22;30869;51.188;6.556;2022-11-13T04:40:17;7.70;99.90
45108;DHT22;30869;51.188;6.556;2022-11-13T04:42:45;7.70;99.90
45108;DHT22;30869;51.188;6.556;2022-11-13T04:45:21;7.60;99.90
45108;DHT22;30869;51.188;6.556;2022-11-13T04:47:47;7.80;99.90
45108;DHT22;30869;51.188;6.556;2022-11-13T04:50:19;7.50;99.90
45108;DHT22;30869;51.188;6.556;2022-11-13T04:52:45;7.50;99.90
45108;DHT22;30869;51.188;6.556;2022-11-13T04:55:14;7.50;99.90
45108;DHT22;30869;51.188;6.556;2022-11-13T04:57:41;7.40;99.90
45108;DHT22;30869;51.188;6.556;2022-11-13T05:00:14;7.40;99.90
45108;DHT22;30869;51.188;6.556;2022-11-13T05:02:41;7.50;99.90
45108;DHT22;30869;51.188;6.556;2022-11-13T05:05:07;7.40;99.90
45108;DHT22;30869;51.188;6.556;2022-11-13T05:07:36;7.30;99.90
45108;DHT22;30869;51.188;6.556;2022-11-13T05:10:02;7.20;99.90
45108;DHT22;30869;51.188;6.556;2022-11-13T05:12:36;7.20;99.90
45108;DHT22;30869;51.188;6.556;2022-11-13T05:15:23;7.30;99.90
45108;DHT22;30869;51.188;6.556;2022-11-13T05:17:52;7.40;99.90
45108;DHT22;30869;51.188;6.556;2022-11-13T05:20:18;7.30;99.90
45108;DHT22;30869;51.188;6.556;2022-11-13T05:22:44;7.40;99.90
45108;DHT22;30869;51.188;6.556;2022-11-13T05:25:10;7.10;99.90
45108;DHT22;30869;51.188;6.556;2022-11-13T05:27:36;7.10;99.90
45108;DHT22;30869;51.188;6.556;2022-11-13T05:30:02;7.20;99.90
45108;DHT22;30869;51.188;6.556;2022-11-13T05:32:28;7.10;99.90
45108;DHT22;30869;51.188;6.556;2022-11-13T05:34:54;7.20;99.90
45108;DHT22;30869;51.188;6.556;2022-11-13T05:37:19;7.10;99.90
45108;DHT22;30869;51.188;6.556;2022-11-13T05:39:45;7.10;99.90
45108;DHT22;30869;51.188;6.556;2022-11-13T05:42:11;7.10;99.90
45108;DHT22;30869;51.188;6.556;2022-11-13T05:44:39;7.20;99.90
45108;DHT22;30869;51.188;6.556;2022-11-13T05:47:05;7.20;99.90
45108;DHT22;30869;51.188;6.556;2022-11-13T05:49:33;7.20;99.90
45108;DHT22;30869;51.188;6.556;2022-11-13T05:51:59;6.90;99.90
45108;DHT22;30869;51.188;6.556;2022-11-13T05:54:25;6.80;99.90
45108;DHT22;30869;51.188;6.556;2022-11-13T05:56:51;6.80;99.90
45108;DHT22;30869;51.188;6.556;2022-11-13T05:59:17;6.80;99.90
45108;DHT22;30869;51.188;6.556;2022-11-13T06:01:43;6.90;99.90
45108;DHT22;30869;51.188;6.556;2022-11-13T06:04:09;6.90;99.90
45108;DHT22;30869;51.188;6.556;2022-11-13T06:06:37;6.90;99.90
45108;DHT22;30869;51.188;6.556;2022-11-13T06:09:05;6.90;99.90
45108;DHT22;30869;51.188;6.556;2022-11-13T06:11:31;6.90;99.90
45108;DHT22;30869;51.188;6.556;2022-11-13T06:13:58;6.80;99.90
45108;DHT22;30869;51.188;6.556;2022-11-13T06:16:29;6.80;99.90
45108;DHT22;30869;51.188;6.556;2022-11-13T06:19:00;6.80;99.90
45108;DHT22;30869;51.188;6.556;2022-11-13T06:21:28;6.90;99.90
45108;DHT22;30869;51.188;6.556;2022-11-13T06:23:55;7.00;99.90
45108;DHT22;30869;51.188;6.556;2022-11-13T06:26:23;7.00;99.90
45108;DHT22;30869;51.188;6.556;2022-11-13T06:28:49;7.00;99.90
45108;DHT22;30869;51.188;6.556;2022-11-13T06:31:21;7.00;99.90
45108;DHT22;30869;51.188;6.556;2022-11-13T06:33:47;6.90;99.90
45108;DHT22;30869;51.188;6.556;2022-11-13T06:36:16;6.80;99.90
45108;DHT22;30869;51.188;6.556;2022-11-13T06:38:43;6.80;99.90
45108;DHT22;30869;51.188;6.556;2022-11-13T06:41:11;6.90;99.90
45108;DHT22;30869;51.188;6.556;2022-11-13T06:43:37;6.80;99.90
45108;DHT22;30869;51.188;6.556;2022-11-13T06:46:11;7.00;99.90
45108;DHT22;30869;51.188;6.556;2022-11-13T06:48:37;6.80;99.90
45108;DHT22;30869;51.188;6.556;2022-11-13T06:51:05;6.70;99.90
45108;DHT22;30869;51.188;6.556;2022-11-13T06:53:44;6.70;99.90
45108;DHT22;30869;51.188;6.556;2022-11-13T06:56:10;6.80;99.90
45108;DHT22;30869;51.188;6.556;2022-11-13T06:58:36;6.80;99.90
45108;DHT22;30869;51.188;6.556;2022-11-13T07:01:10;6.80;99.90
45108;DHT22;30869;51.188;6.556;2022-11-13T07:03:36;6.90;99.90
45108;DHT22;30869;51.188;6.556;2022-11-13T07:06:09;6.80;99.90
45108;DHT22;30869;51.188;6.556;2022-11-13T07:08:44;6.90;99.90
45108;DHT22;30869;51.188;6.556;2022-11-13T07:11:25;6.90;99.90
45108;DHT22;30869;51.188;6.556;2022-11-13T07:13:54;6.80;99.90
45108;DHT22;30869;51.188;6.556;2022-11-13T07:16:25;6.80;99.90
45108;DHT22;30869;51.188;6.556;2022-11-13T07:19:01;6.80;99.90
45108;DHT22;30869;51.188;6.556;2022-11-13T07:21:44;6.70;99.90
45108;DHT22;30869;51.188;6.556;2022-11-13T07:24:10;6.70;99.90
45108;DHT22;30869;51.188;6.556;2022-11-13T07:26:36;6.60;99.90
45108;DHT22;30869;51.188;6.556;2022-11-13T07:29:02;6.50;99.90
45108;DHT22;30869;51.188;6.556;2022-11-13T07:31:28;6.20;99.90
45108;DHT22;30869;51.188;6.556;2022-11-13T07:33:53;6.30;99.90
45108;DHT22;30869;51.188;6.556;2022-11-13T07:36:22;6.40;99.90
45108;DHT22;30869;51.188;6.556;2022-11-13T07:38:51;6.10;99.90
45108;DHT22;30869;51.188;6.556;2022-11-13T07:41:17;6.10;99.90
45108;DHT22;30869;51.188;6.556;2022-11-13T07:43:43;6.20;99.90
45108;DHT22;30869;51.188;6.556;2022-11-13T07:46:09;6.20;99.90
45108;DHT22;30869;51.188;6.556;2022-11-13T07:48:36;6.30;99.90
45108;DHT22;30869;51.188;6.556;2022-11-13T07:51:02;6.40;99.90
45108;DHT22;30869;51.188;6.556;2022-11-13T07:53:28;6.50;99.90
45108;DHT22;30869;51.188;6.556;2022-11-13T07:55:54;6.60;99.90
45108;DHT22;30869;51.188;6.556;2022-11-13T07:58:20;6.60;99.90
45108;DHT22;30869;51.188;6.556;2022-11-13T08:00:46;6.70;99.90
45108;DHT22;30869;51.188;6.556;2022-11-13T08:03:13;6.80;99.90
45108;DHT22;30869;51.188;6.556;2022-11-13T08:05:41;6.90;99.90
45108;DHT22;30869;51.188;6.556;2022-11-13T08:08:13;6.80;99.90
45108;DHT22;30869;51.188;6.556;2022-11-13T08:10:39;6.90;99.90
45108;DHT22;30869;51.188;6.556;2022-11-13T08:13:11;6.80;99.90
45108;DHT22;30869;51.188;6.556;2022-11-13T08:15:40;7.00;99.90
45108;DHT22;30869;51.188;6.556;2022-11-13T08:18:07;6.90;99.90
45108;DHT22;30869;51.188;6.556;2022-11-13T08:20:33;6.90;99.90
45108;DHT22;30869;51.188;6.556;2022-11-13T08:23:08;6.80;99.90
45108;DHT22;30869;51.188;6.556;2022-11-13T08:25:37;7.00;99.90
45108;DHT22;30869;51.188;6.556;2022-11-13T08:28:03;7.00;99.90
45108;DHT22;30869;51.188;6.556;2022-11-13T08:30:31;7.20;99.90
45108;DHT22;30869;51.188;6.556;2022-11-13T08:33:03;7.30;99.90
45108;DHT22;30869;51.188;6.556;2022-11-13T08:35:29;7.30;99.90
45108;DHT22;30869;51.188;6.556;2022-11-13T08:38:03;7.30;99.90
45108;DHT22;30869;51.188;6.556;2022-11-13T08:40:29;7.40;99.90
45108;DHT22;30869;51.188;6.556;2022-11-13T08:42:59;7.50;99.90
45108;DHT22;30869;51.188;6.556;2022-11-13T08:45:25;7.80;99.90
45108;DHT22;30869;51.188;6.556;2022-11-13T08:47:51;8.00;99.90
45108;DHT22;30869;51.188;6.556;2022-11-13T08:50:16;8.20;99.90
45108;DHT22;30869;51.188;6.556;2022-11-13T08:52:43;8.20;99.90
45108;DHT22;30869;51.188;6.556;2022-11-13T08:55:08;8.10;99.90
45108;DHT22;30869;51.188;6.556;2022-11-13T08:57:34;8.10;99.90
45108;DHT22;30869;51.188;6.556;2022-11-13T09:00:00;8.10;99.90
45108;DHT22;30869;51.188;6.556;2022-11-13T09:02:26;8.10;99.90
45108;DHT22;30869;51.188;6.556;2022-11-13T09:04:52;8.30;99.90
45108;DHT22;30869;51.188;6.556;2022-11-13T09:07:18;8.50;99.90
45108;DHT22;30869;51.188;6.556;2022-11-13T09:09:43;8.70;99.90
45108;DHT22;30869;51.188;6.556;2022-11-13T09:12:10;8.80;99.90
45108;DHT22;30869;51.188;6.556;2022-11-13T09:14:36;8.90;99.90
45108;DHT22;30869;51.188;6.556;2022-11-13T09:17:02;8.90;99.90
45108;DHT22;30869;51.188;6.556;2022-11-13T09:19:28;9.00;99.90
45108;DHT22;30869;51.188;6.556;2022-11-13T09:21:53;8.90;99.90
45108;DHT22;30869;51.188;6.556;2022-11-13T09:24:19;8.90;99.90
45108;DHT22;30869;51.188;6.556;2022-11-13T09:26:45;8.90;99.90
45108;DHT22;30869;51.188;6.556;2022-11-13T09:29:11;8.80;99.90
45108;DHT22;30869;51.188;6.556;2022-11-13T09:31:37;8.70;99.90
45108;DHT22;30869;51.188;6.556;2022-11-13T09:34:05;8.80;99.90
45108;DHT22;30869;51.188;6.556;2022-11-13T09:36:31;8.90;99.90
45108;DHT22;30869;51.188;6.556;2022-11-13T09:38:57;8.90;99.90
45108;DHT22;30869;51.188;6.556;2022-11-13T09:41:28;8.90;99.90
45108;DHT22;30869;51.188;6.556;2022-11-13T09:43:55;8.90;99.90
45108;DHT22;30869;51.188;6.556;2022-11-13T09:49:17;9.00;99.90
45108;DHT22;30869;51.188;6.556;2022-11-13T09:51:51;8.90;99.90
45108;DHT22;30869;51.188;6.556;2022-11-13T09:54:18;8.90;99.90
45108;DHT22;30869;51.188;6.556;2022-11-13T09:59:28;9.40;99.90
45108;DHT22;30869;51.188;6.556;2022-11-13T10:05:03;9.10;99.90
45108;DHT22;30869;51.188;6.556;2022-11-13T10:08:04;9.30;99.90
45108;DHT22;30869;51.188;6.556;2022-11-13T10:11:05;9.20;99.90
45108;DHT22;30869;51.188;6.556;2022-11-13T10:13:48;9.30;99.90
45108;DHT22;30869;51.188;6.556;2022-11-13T10:16:28;9.90;99.90
45108;DHT22;30869;51.188;6.556;2022-11-13T10:21:37;10.00;99.90
45108;DHT22;30869;51.188;6.556;2022-11-13T10:24:55;10.10;99.90
45108;DHT22;30869;51.188;6.556;2022-11-13T10:27:00;10.00;99.90
45108;DHT22;30869;51.188;6.556;2022-11-13T10:29:27;10.00;99.90
45108;DHT22;30869;51.188;6.556;2022-11-13T10:31:53;10.40;99.90
45108;DHT22;30869;51.188;6.556;2022-11-13T10:34:19;10.40;99.90
45108;DHT22;30869;51.188;6.556;2022-11-13T10:39:19;10.90;99.90
45108;DHT22;30869;51.188;6.556;2022-11-13T10:41:47;10.90;99.90
45108;DHT22;30869;51.188;6.556;2022-11-13T10:46:46;11.00;99.90
45108;DHT22;30869;51.188;6.556;2022-11-13T10:49:25;10.90;99.90
45108;DHT22;30869;51.188;6.556;2022-11-13T10:51:58;11.30;99.90
45108;DHT22;30869;51.188;6.556;2022-11-13T10:54:30;11.30;99.90
45108;DHT22;30869;51.188;6.556;2022-11-13T10:57:04;11.00;99.90
45108;DHT22;30869;51.188;6.556;2022-11-13T10:59:39;10.90;99.90
45108;DHT22;30869;51.188;6.556;2022-11-13T11:02:20;10.70;99.90
45108;DHT22;30869;51.188;6.556;2022-11-13T11:04:47;10.90;99.90
45108;DHT22;30869;51.188;6.556;2022-11-13T11:07:18;11.00;99.90
45108;DHT22;30869;51.188;6.556;2022-11-13T11:09:45;11.10;99.90
45108;DHT22;30869;51.188;6.556;2022-11-13T11:12:13;10.90;99.90
45108;DHT22;30869;51.188;6.556;2022-11-13T11:22:36;11.70;99.90
45108;DHT22;30869;51.188;6.556;2022-11-13T11:25:13;11.90;99.90
45108;DHT22;30869;51.188;6.556;2022-11-13T11:27:48;12.50;99.90
45108;DHT22;30869;51.188;6.556;2022-11-13T11:30:19;12.20;99.90
45108;DHT22;30869;51.188;6.556;2022-11-13T11:33:03;12.30;99.90
45108;DHT22;30869;51.188;6.556;2022-11-13T11:38:20;12.30;99.90
45108;DHT22;30869;51.188;6.556;2022-11-13T11:40:55;12.10;99.90
45108;DHT22;30869;51.188;6.556;2022-11-13T11:43:38;11.80;99.90
45108;DHT22;30869;51.188;6.556;2022-11-13T11:46:13;11.50;99.90
45108;DHT22;30869;51.188;6.556;2022-11-13T11:48:39;11.70;99.90
45108;DHT22;30869;51.188;6.556;2022-11-13T11:51:25;11.60;99.90
45108;DHT22;30869;51.188;6.556;2022-11-13T12:00:25;11.70;99.90
45108;DHT22;30869;51.188;6.556;2022-11-13T12:08:08;11.80;99.90
45108;DHT22;30869;51.188;6.556;2022-11-13T12:16:24;11.20;99.90
45108;DHT22;30869;51.188;6.556;2022-11-13T12:19:00;11.20;99.90
45108;DHT22;30869;51.188;6.556;2022-11-13T12:21:40;11.10;99.90
45108;DHT22;30869;51.188;6.556;2022-11-13T12:24:39;11.70;99.90
45108;DHT22;30869;51.188;6.556;2022-11-13T12:27:31;11.70;99.90
45108;DHT22;30869;51.188;6.556;2022-11-13T12:35:20;11.70;99.90
45108;DHT22;30869;51.188;6.556;2022-11-13T12:45:54;11.20;99.90
45108;DHT22;30869;51.188;6.556;2022-11-13T12:48:32;10.80;99.90
45108;DHT22;30869;51.188;6.556;2022-11-13T12:51:03;10.70;99.90
45108;DHT22;30869;51.188;6.556;2022-11-13T12:53:41;10.80;99.90
45108;DHT22;30869;51.188;6.556;2022-11-13T12:56:14;10.60;99.90
45108;DHT22;30869;51.188;6.556;2022-11-13T12:58:51;10.60;99.90
45108;DHT22;30869;51.188;6.556;2022-11-13T13:01:18;10.90;99.90
45108;DHT22;30869;51.188;6.556;2022-11-13T13:17:24;12.50;99.90
45108;DHT22;30869;51.188;6.556;2022-11-13T13:20:06;12.50;99.90
45108;DHT22;30869;51.188;6.556;2022-11-13T13:22:57;12.10;99.90
45108;DHT22;30869;51.188;6.556;2022-11-13T13:25:28;11.70;99.90
45108;DHT22;30869;51.188;6.556;2022-11-13T13:28:18;12.10;99.90
45108;DHT22;30869;51.188;6.556;2022-11-13T13:31:06;12.60;99.90
45108;DHT22;30869;51.188;6.556;2022-11-13T13:49:52;12.10;99.90
45108;DHT22;30869;51.188;6.556;2022-11-13T13:52:23;12.00;99.90
45108;DHT22;30869;51.188;6.556;2022-11-13T13:54:51;11.60;99.90
45108;DHT22;30869;51.188;6.556;2022-11-13T13:57:17;11.80;99.90
45108;DHT22;30869;51.188;6.556;2022-11-13T13:59:42;11.60;99.90
45108;DHT22;30869;51.188;6.556;2022-11-13T14:02:22;11.70;99.90
45108;DHT22;30869;51.188;6.556;2022-11-13T14:04:50;11.90;99.90
45108;DHT22;30869;51.188;6.556;2022-11-13T14:07:26;12.10;99.90
45108;DHT22;30869;51.188;6.556;2022-11-13T14:12:42;11.60;99.90
45108;DHT22;30869;51.188;6.556;2022-11-13T14:15:30;11.50;99.90
45108;DHT22;30869;51.188;6.556;2022-11-13T14:18:12;11.70;99.90
45108;DHT22;30869;51.188;6.556;2022-11-13T14:20:42;11.70;99.90
45108;DHT22;30869;51.188;6.556;2022-11-13T14:23:13;11.70;99.90
45108;DHT22;30869;51.188;6.556;2022-11-13T14:25:39;11.90;99.90
45108;DHT22;30869;51.188;6.556;2022-11-13T14:28:18;12.20;99.90
45108;DHT22;30869;51.188;6.556;2022-11-13T14:30:55;12.30;99.90
45108;DHT22;30869;51.188;6.556;2022-11-13T14:33:28;12.40;99.90
45108;DHT22;30869;51.188;6.556;2022-11-13T14:35:56;12.40;99.90
45108;DHT22;30869;51.188;6.556;2022-11-13T14:38:25;12.50;99.90
45108;DHT22;30869;51.188;6.556;2022-11-13T14:40:51;12.30;99.90
45108;DHT22;30869;51.188;6.556;2022-11-13T14:43:27;12.00;99.90
45108;DHT22;30869;51.188;6.556;2022-11-13T14:48:58;11.90;99.90
45108;DHT22;30869;51.188;6.556;2022-11-13T14:51:29;12.00;99.90
45108;DHT22;30869;51.188;6.556;2022-11-13T14:53:58;11.90;99.90
45108;DHT22;30869;51.188;6.556;2022-11-13T14:56:36;11.80;99.90
45108;DHT22;30869;51.188;6.556;2022-11-13T14:59:09;11.70;99.90
45108;DHT22;30869;51.188;6.556;2022-11-13T15:01:36;11.60;99.90
45108;DHT22;30869;51.188;6.556;2022-11-13T15:04:02;11.50;99.90
45108;DHT22;30869;51.188;6.556;2022-11-13T15:06:35;11.40;99.90
45108;DHT22;30869;51.188;6.556;2022-11-13T15:09:01;11.20;99.90
45108;DHT22;30869;51.188;6.556;2022-11-13T15:11:27;11.30;99.90
45108;DHT22;30869;51.188;6.556;2022-11-13T15:13:53;11.10;99.90
45108;DHT22;30869;51.188;6.556;2022-11-13T15:16:25;10.90;99.90
45108;DHT22;30869;51.188;6.556;2022-11-13T15:19:00;10.80;99.90
45108;DHT22;30869;51.188;6.556;2022-11-13T15:21:27;10.80;99.90
45108;DHT22;30869;51.188;6.556;2022-11-13T15:23:53;11.00;99.90
45108;DHT22;30869;51.188;6.556;2022-11-13T15:26:19;11.00;99.90
45108;DHT22;30869;51.188;6.556;2022-11-13T15:28:44;10.90;99.90
45108;DHT22;30869;51.188;6.556;2022-11-13T15:31:28;10.70;99.90
45108;DHT22;30869;51.188;6.556;2022-11-13T15:33:54;10.50;99.90
45108;DHT22;30869;51.188;6.556;2022-11-13T15:36:20;10.40;99.90
45108;DHT22;30869;51.188;6.556;2022-11-13T15:38:46;10.40;99.90
45108;DHT22;30869;51.188;6.556;2022-11-13T15:41:17;10.20;99.90
45108;DHT22;30869;51.188;6.556;2022-11-13T15:43:49;10.20;99.90
45108;DHT22;30869;51.188;6.556;2022-11-13T15:46:16;10.10;99.90
45108;DHT22;30869;51.188;6.556;2022-11-13T15:48:46;10.00;99.90
45108;DHT22;30869;51.188;6.556;2022-11-13T15:56:31;9.90;99.90
45108;DHT22;30869;51.188;6.556;2022-11-13T15:58:57;9.80;99.90
45108;DHT22;30869;51.188;6.556;2022-11-13T16:01:24;9.80;99.90
45108;DHT22;30869;51.188;6.556;2022-11-13T16:03:50;9.90;99.90
45108;DHT22;30869;51.188;6.556;2022-11-13T16:06:18;9.80;99.90
45108;DHT22;30869;51.188;6.556;2022-11-13T16:08:45;9.70;99.90
45108;DHT22;30869;51.188;6.556;2022-11-13T16:11:15;9.70;99.90
45108;DHT22;30869;51.188;6.556;2022-11-13T16:13:41;9.70;99.90
45108;DHT22;30869;51.188;6.556;2022-11-13T16:16:22;9.70;99.90
45108;DHT22;30869;51.188;6.556;2022-11-13T16:18:49;9.70;99.90
45108;DHT22;30869;51.188;6.556;2022-11-13T16:21:17;9.70;99.90
45108;DHT22;30869;51.188;6.556;2022-11-13T16:23:44;9.70;99.90
45108;DHT22;30869;51.188;6.556;2022-11-13T16:26:13;9.60;99.90
45108;DHT22;30869;51.188;6.556;2022-11-13T16:28:39;9.60;99.90
45108;DHT22;30869;51.188;6.556;2022-11-13T16:31:05;9.60;99.90
45108;DHT22;30869;51.188;6.556;2022-11-13T16:33:30;9.60;99.90
45108;DHT22;30869;51.188;6.556;2022-11-13T16:35:56;9.60;99.90
45108;DHT22;30869;51.188;6.556;2022-11-13T16:38:22;9.60;99.90
45108;DHT22;30869;51.188;6.556;2022-11-13T16:40:48;9.70;99.90
45108;DHT22;30869;51.188;6.556;2022-11-13T16:43:13;9.60;99.90
45108;DHT22;30869;51.188;6.556;2022-11-13T16:45:39;9.60;99.90
45108;DHT22;30869;51.188;6.556;2022-11-13T16:48:11;9.50;99.90
45108;DHT22;30869;51.188;6.556;2022-11-13T16:50:37;9.50;99.90
45108;DHT22;30869;51.188;6.556;2022-11-13T16:53:07;9.50;99.90
45108;DHT22;30869;51.188;6.556;2022-11-13T16:55:34;9.40;99.90
45108;DHT22;30869;51.188;6.556;2022-11-13T16:58:01;9.40;99.90
45108;DHT22;30869;51.188;6.556;2022-11-13T17:00:27;9.50;99.90
45108;DHT22;30869;51.188;6.556;2022-11-13T17:02:53;9.40;99.90
45108;DHT22;30869;51.188;6.556;2022-11-13T17:05:20;9.40;99.90
45108;DHT22;30869;51.188;6.556;2022-11-13T17:07:46;9.40;99.90
45108;DHT22;30869;51.188;6.556;2022-11-13T17:10:14;9.40;99.90
45108;DHT22;30869;51.188;6.556;2022-11-13T17:12:40;9.40;99.90
45108;DHT22;30869;51.188;6.556;2022-11-13T17:15:07;9.30;99.90
45108;DHT22;30869;51.188;6.556;2022-11-13T17:17:35;9.40;99.90
45108;DHT22;30869;51.188;6.556;2022-11-13T17:20:01;9.40;99.90
45108;DHT22;30869;51.188;6.556;2022-11-13T17:22:27;9.40;99.90
45108;DHT22;30869;51.188;6.556;2022-11-13T17:24:53;9.40;99.90
45108;DHT22;30869;51.188;6.556;2022-11-13T17:27:20;9.40;99.90
45108;DHT22;30869;51.188;6.556;2022-11-13T17:29:45;9.50;99.90
45108;DHT22;30869;51.188;6.556;2022-11-13T17:32:11;9.40;99.90
45108;DHT22;30869;51.188;6.556;2022-11-13T17:34:37;9.40;99.90
45108;DHT22;30869;51.188;6.556;2022-11-13T17:37:02;9.40;99.90
45108;DHT22;30869;51.188;6.556;2022-11-13T17:39:28;9.30;99.90
45108;DHT22;30869;51.188;6.556;2022-11-13T17:41:54;9.30;99.90
45108;DHT22;30869;51.188;6.556;2022-11-13T17:44:20;9.50;99.90
45108;DHT22;30869;51.188;6.556;2022-11-13T17:46:46;9.40;99.90
45108;DHT22;30869;51.188;6.556;2022-11-13T17:49:12;9.30;99.90
45108;DHT22;30869;51.188;6.556;2022-11-13T17:51:40;9.30;99.90
45108;DHT22;30869;51.188;6.556;2022-11-13T17:54:06;9.20;99.90
45108;DHT22;30869;51.188;6.556;2022-11-13T17:56:32;9.30;99.90
45108;DHT22;30869;51.188;6.556;2022-11-13T17:59:00;9.30;99.90
45108;DHT22;30869;51.188;6.556;2022-11-13T18:01:26;9.40;99.90